Time;durP1;ratioP1;P1;durP2;ratioP2;P2;SDS_P1;SDS_P2;PMS_P1;PMS_P2;Temp;Humidity;BMP_temperature;BMP_pressure;BME280_temperature;BME280_humidity;BME280_pressure;Samples;Min_cycle;Max_cycle;Signal;HPM_P1;HPM_P2
2023/10/03 00:00:31;;;;;;;17.60;9.40;;;;;;;16.54;71.75;100925.82;110559;1209;139080;-65
2023/10/03 00:03:01;;;;;;;19.60;9.00;;;;;;;16.53;71.78;100919.95;110642;1214;98948;-64
2023/10/03 00:05:29;;;;;;;18.00;9.30;;;;;;;16.52;71.89;100912.80;110519;1215;138936;-65
2023/10/03 00:07:56;;;;;;;15.20;8.20;;;;;;;16.52;72.01;100909.95;110898;1209;103763;-65
2023/10/03 00:10:22;;;;;;;16.20;7.50;;;;;;;16.50;72.15;100912.57;110652;1213;139966;-65
2023/10/03 00:12:50;;;;;;;18.50;8.20;;;;;;;16.49;72.13;100905.25;110604;1213;98983;-65
2023/10/03 00:15:17;;;;;;;17.40;7.60;;;;;;;16.48;72.19;100902.98;110656;1209;100544;-65
2023/10/03 00:17:44;;;;;;;14.30;7.70;;;;;;;16.47;72.25;100899.27;110469;1209;139570;-65
2023/10/03 00:20:12;;;;;;;18.80;7.50;;;;;;;16.45;72.45;100898.65;110619;1215;99094;-64
2023/10/03 00:22:41;;;;;;;16.10;8.10;;;;;;;16.42;72.44;100896.69;110572;1209;139010;-64
2023/10/03 00:25:27;;;;;;;20.10;7.60;;;;;;;16.39;72.58;100895.59;110637;1209;99029;-65
2023/10/03 00:27:55;;;;;;;17.10;7.90;;;;;;;16.36;72.55;100889.66;110590;1213;99025;-65
2023/10/03 00:30:24;;;;;;;18.90;7.60;;;;;;;16.33;72.63;100885.21;110602;1210;138961;-64
2023/10/03 00:32:51;;;;;;;18.10;7.40;;;;;;;16.31;72.76;100884.42;110599;1209;112315;-64
2023/10/03 00:35:19;;;;;;;16.40;7.40;;;;;;;16.29;72.80;100884.54;110473;1214;141806;-64
2023/10/03 00:37:46;;;;;;;24.50;8.50;;;;;;;16.27;72.72;100884.33;110710;1213;107879;-65
2023/10/03 00:42:50;;;;;;;20.80;8.60;;;;;;;16.20;72.83;100878.98;110691;1213;99040;-65
2023/10/03 00:45:21;;;;;;;19.20;7.60;;;;;;;16.18;72.99;100877.84;110707;1210;99015;-65
2023/10/03 00:47:48;;;;;;;16.00;8.00;;;;;;;16.14;73.18;100877.92;110572;1214;140063;-65
2023/10/03 00:50:16;;;;;;;20.50;8.80;;;;;;;16.09;73.22;100874.62;110618;1209;99050;-65
2023/10/03 00:52:45;;;;;;;19.70;8.40;;;;;;;16.05;73.25;100879.77;110527;1214;139017;-65
2023/10/03 00:55:11;;;;;;;19.40;8.40;;;;;;;16.00;73.64;100881.14;110859;1212;99017;-65
2023/10/03 00:57:37;;;;;;;16.70;8.10;;;;;;;15.98;73.62;100883.09;110691;1210;99037;-65
2023/10/03 01:00:14;;;;;;;15.30;8.40;;;;;;;15.96;73.57;100881.20;110661;1209;139182;-65
2023/10/03 01:02:50;;;;;;;16.80;8.30;;;;;;;15.94;73.64;100875.38;110712;1209;106490;-65
2023/10/03 01:05:16;;;;;;;28.10;8.70;;;;;;;15.92;73.71;100871.39;110543;1214;139956;-65
2023/10/03 01:07:47;;;;;;;17.00;8.60;;;;;;;15.89;73.78;100874.41;110703;1210;98958;-64
2023/10/03 01:10:17;;;;;;;18.50;8.60;;;;;;;15.87;73.78;100869.33;110648;1209;139094;-65
2023/10/03 01:12:46;;;;;;;23.10;8.10;;;;;;;15.83;73.90;100865.92;110754;1214;99859;-65
2023/10/03 01:15:16;;;;;;;18.30;8.80;;;;;;;15.81;73.97;100865.33;110775;1209;108007;-65
2023/10/03 01:17:44;;;;;;;22.70;8.30;;;;;;;15.79;74.16;100867.45;110574;1209;139276;-65
2023/10/03 01:20:23;;;;;;;21.30;9.10;;;;;;;15.78;74.09;100864.86;110684;1209;99197;-65
2023/10/03 01:22:52;;;;;;;22.30;8.90;;;;;;;15.74;74.12;100857.67;110530;1212;140166;-65
2023/10/03 01:25:17;;;;;;;19.70;9.00;;;;;;;15.70;74.17;100854.33;110733;1212;99895;-65
2023/10/03 01:27:44;;;;;;;18.70;9.00;;;;;;;15.67;74.35;100854.16;110721;1208;98906;-65
2023/10/03 01:30:12;;;;;;;21.50;8.70;;;;;;;15.64;74.39;100852.21;110562;1209;138911;-65
2023/10/03 01:32:43;;;;;;;19.20;9.80;;;;;;;15.61;74.76;100844.06;110694;1209;99116;-65
2023/10/03 01:35:11;;;;;;;23.70;8.50;;;;;;;15.62;74.66;100840.99;110513;1209;138881;-65
2023/10/03 01:37:40;;;;;;;23.60;9.60;;;;;;;15.60;74.76;100836.08;110727;1214;99586;-65
2023/10/03 01:40:13;;;;;;;19.60;8.90;;;;;;;15.57;74.78;100834.06;110641;1214;108281;-65
2023/10/03 01:42:45;;;;;;;17.20;9.10;;;;;;;15.55;74.79;100833.65;110714;1213;99060;-65
2023/10/03 01:45:17;;;;;;;18.10;7.80;;;;;;;15.51;74.87;100827.73;110646;1213;99074;-65
2023/10/03 01:47:49;;;;;;;18.60;9.10;;;;;;;15.48;75.05;100826.16;110547;1209;139044;-64
2023/10/03 01:50:17;;;;;;;17.20;8.60;;;;;;;15.45;75.18;100828.13;110635;1213;99044;-64
2023/10/03 01:52:43;;;;;;;22.80;9.90;;;;;;;15.43;75.03;100825.93;110474;1213;139021;-65
2023/10/03 01:55:13;;;;;;;17.60;9.00;;;;;;;15.39;75.14;100822.39;110855;1213;99130;-65
2023/10/03 01:57:41;;;;;;;24.00;9.30;;;;;;;15.36;75.39;100821.50;110700;1212;99043;-64
2023/10/03 02:00:20;;;;;;;22.00;9.30;;;;;;;15.32;75.34;100820.63;110529;1209;139250;-65
2023/10/03 02:02:50;;;;;;;18.80;8.90;;;;;;;15.29;75.46;100816.88;110758;1213;99957;-64
2023/10/03 02:05:19;;;;;;;23.10;9.50;;;;;;;15.26;75.54;100810.54;110659;1209;138932;-66
2023/10/03 02:07:47;;;;;;;25.40;10.00;;;;;;;15.25;75.68;100805.77;110686;1211;98926;-65
2023/10/03 02:10:12;;;;;;;22.20;9.10;;;;;;;15.23;75.67;100806.20;110604;1214;139827;-65
2023/10/03 02:12:44;;;;;;;21.50;10.10;;;;;;;15.20;75.80;100803.89;110694;1209;99030;-65
2023/10/03 02:15:09;;;;;;;19.30;9.20;;;;;;;15.18;75.95;100801.67;110686;1209;100010;-65
2023/10/03 02:17:35;;;;;;;23.10;10.00;;;;;;;15.14;76.03;100792.52;110476;1214;139284;-65
2023/10/03 02:20:05;;;;;;;20.30;9.40;;;;;;;15.12;76.22;100787.45;110677;1211;99021;-65
2023/10/03 02:22:31;;;;;;;18.40;9.60;;;;;;;15.10;76.38;100781.63;110498;1215;140751;-65
2023/10/03 02:24:56;;;;;;;18.30;9.70;;;;;;;15.08;76.19;100779.80;110715;1209;99016;-65
2023/10/03 02:27:25;;;;;;;23.30;9.70;;;;;;;15.04;76.33;100773.58;110799;1214;99017;-65
2023/10/03 02:29:51;;;;;;;17.60;9.40;;;;;;;14.99;76.44;100766.50;110598;1214;140315;-64
2023/10/03 02:32:16;;;;;;;22.40;10.30;;;;;;;14.95;76.44;100761.15;110566;1210;98936;-65
2023/10/03 02:34:42;;;;;;;23.50;10.40;;;;;;;14.90;76.47;100761.44;110633;1214;139752;-65
2023/10/03 02:37:07;;;;;;;21.80;10.20;;;;;;;14.86;76.58;100757.38;110605;1214;99018;-65
2023/10/03 02:39:35;;;;;;;26.60;11.00;;;;;;;14.84;76.79;100755.30;110597;1213;98984;-65
2023/10/03 02:42:01;;;;;;;17.80;9.60;;;;;;;14.82;76.83;100755.40;110481;1213;141292;-65
2023/10/03 02:44:27;;;;;;;20.10;9.90;;;;;;;14.81;76.85;100750.11;110749;1209;98951;-64
2023/10/03 02:46:52;;;;;;;24.20;9.90;;;;;;;14.78;77.02;100749.37;110517;1214;139666;-65
2023/10/03 02:49:18;;;;;;;23.10;11.00;;;;;;;14.76;77.07;100744.62;110677;1213;98988;-64
2023/10/03 02:51:43;;;;;;;21.90;10.40;;;;;;;14.75;77.17;100741.98;110737;1209;99040;-64
2023/10/03 02:54:09;;;;;;;26.10;11.30;;;;;;;14.73;77.25;100743.02;110446;1214;140113;-65
2023/10/03 02:56:34;;;;;;;17.30;9.40;;;;;;;14.70;77.39;100750.02;110766;1214;99105;-64
2023/10/03 02:59:00;;;;;;;20.80;9.80;;;;;;;14.68;77.37;100748.34;110490;1209;139045;-64
2023/10/03 03:01:26;;;;;;;23.80;10.80;;;;;;;14.67;77.48;100743.58;110646;1209;99162;-65
2023/10/03 03:03:52;;;;;;;18.90;10.30;;;;;;;14.65;77.58;100738.80;110738;1210;100325;-64
2023/10/03 03:06:18;;;;;;;21.90;10.80;;;;;;;14.64;77.58;100732.06;110555;1209;141929;-64
2023/10/03 03:08:45;;;;;;;21.70;10.70;;;;;;;14.62;77.62;100730.14;110651;1209;99016;-65
2023/10/03 03:11:11;;;;;;;19.70;10.30;;;;;;;14.61;77.73;100726.06;110456;1213;141538;-64
2023/10/03 03:13:36;;;;;;;22.90;10.70;;;;;;;14.59;77.70;100722.05;110699;1215;98969;-65
2023/10/03 03:16:06;;;;;;;21.00;10.40;;;;;;;14.59;77.83;100718.13;110629;1213;99091;-65
2023/10/03 03:18:43;;;;;;;24.70;10.60;;;;;;;14.57;77.90;100708.31;110580;1212;139000;-65
2023/10/03 03:21:10;;;;;;;21.10;8.90;;;;;;;14.56;77.96;100705.67;110652;1210;99917;-65
2023/10/03 03:23:36;;;;;;;22.50;9.60;;;;;;;14.55;77.95;100701.97;110574;1209;139678;-64
2023/10/03 03:28:37;;;;;;;22.90;10.10;;;;;;;14.54;78.11;100708.89;110573;1210;140138;-65
2023/10/03 03:31:02;;;;;;;21.00;9.70;;;;;;;14.53;78.13;100707.86;110556;1209;98946;-64
2023/10/03 03:33:27;;;;;;;17.00;9.70;;;;;;;14.52;78.14;100708.11;110736;1210;99011;-64
2023/10/03 03:35:54;;;;;;;21.20;10.20;;;;;;;14.50;78.23;100707.31;110562;1209;139354;-64
2023/10/03 03:38:20;;;;;;;19.60;10.70;;;;;;;14.49;78.29;100696.57;110740;1210;99092;-64
2023/10/03 03:40:47;;;;;;;19.50;9.60;;;;;;;14.49;78.38;100696.61;110646;1208;140368;-65
2023/10/03 03:43:16;;;;;;;25.30;10.40;;;;;;;14.47;78.43;100696.16;110439;1214;107867;-64
2023/10/03 03:45:43;;;;;;;19.50;9.90;;;;;;;14.48;78.52;100687.49;110636;1210;99031;-65
2023/10/03 03:48:09;;;;;;;25.00;9.60;;;;;;;14.48;78.61;100684.59;110592;1210;138941;-65
2023/10/03 03:50:35;;;;;;;17.70;9.60;;;;;;;14.49;78.61;100682.21;110628;1214;99081;-65
2023/10/03 03:53:02;;;;;;;22.20;10.00;;;;;;;14.49;78.67;100681.46;110620;1209;140428;-65
2023/10/03 03:55:30;;;;;;;21.80;10.10;;;;;;;14.48;78.68;100674.71;110698;1210;99107;-65
2023/10/03 03:57:56;;;;;;;21.30;9.20;;;;;;;14.48;78.73;100671.33;110577;1214;99565;-64
2023/10/03 04:00:23;;;;;;;23.70;11.80;;;;;;;14.45;78.67;100668.42;110598;1209;139725;-64
2023/10/03 04:02:49;;;;;;;19.60;10.10;;;;;;;14.43;78.75;100665.82;110658;1209;98962;-64
2023/10/03 04:05:17;;;;;;;24.60;10.80;;;;;;;14.43;78.81;100663.68;110585;1209;141168;-64
2023/10/03 04:07:43;;;;;;;22.60;10.20;;;;;;;14.42;78.91;100657.61;110815;1212;100325;-64
2023/10/03 04:10:15;;;;;;;21.20;9.30;;;;;;;14.42;79.01;100654.55;110664;1214;99020;-65
2023/10/03 04:12:43;;;;;;;25.10;10.60;;;;;;;14.42;78.93;100651.68;110647;1214;101641;-64
2023/10/03 04:15:18;;;;;;;24.60;9.50;;;;;;;14.41;78.98;100647.42;110661;1209;107219;-65
2023/10/03 04:17:44;;;;;;;18.90;9.80;;;;;;;14.38;78.96;100644.54;110591;1213;139986;-65
2023/10/03 04:20:20;;;;;;;19.40;9.50;;;;;;;14.36;78.96;100643.55;110471;1214;98996;-65
2023/10/03 04:22:52;;;;;;;22.30;9.70;;;;;;;14.34;78.90;100641.36;110555;1209;139578;-65
2023/10/03 04:25:19;;;;;;;21.90;10.70;;;;;;;14.30;79.06;100636.58;110578;1209;100592;-65
2023/10/03 04:27:55;;;;;;;23.70;9.10;;;;;;;14.26;79.10;100634.63;110615;1213;99042;-66
2023/10/03 04:30:21;;;;;;;21.60;10.40;;;;;;;14.24;79.08;100632.80;110524;1214;139873;-65
2023/10/03 04:32:47;;;;;;;24.50;10.50;;;;;;;14.20;79.21;100628.13;110817;1213;98952;-65
2023/10/03 04:35:14;;;;;;;24.30;10.10;;;;;;;14.18;79.25;100626.87;110447;1213;139603;-65
2023/10/03 04:37:42;;;;;;;22.10;10.60;;;;;;;14.15;79.28;100622.91;110557;1213;98947;-65
2023/10/03 04:40:14;;;;;;;21.10;10.40;;;;;;;14.12;79.42;100620.34;110563;1214;99101;-65
2023/10/03 04:42:41;;;;;;;21.80;9.80;;;;;;;14.10;79.53;100618.33;110563;1209;99479;-65
2023/10/03 04:45:11;;;;;;;28.10;10.00;;;;;;;14.07;79.52;100612.75;110593;1214;99069;-65
2023/10/03 04:47:41;;;;;;;19.70;10.40;;;;;;;14.05;79.66;100610.38;110582;1214;139653;-65
2023/10/03 04:50:08;;;;;;;22.10;10.00;;;;;;;14.03;79.72;100606.19;110561;1210;107776;-65
2023/10/03 04:52:33;;;;;;;23.50;9.70;;;;;;;14.00;79.66;100601.82;110505;1211;141495;-65
2023/10/03 04:54:58;;;;;;;26.60;11.50;;;;;;;13.99;79.74;100601.19;110715;1209;99004;-65
2023/10/03 04:57:27;;;;;;;21.40;10.80;;;;;;;13.97;79.82;100598.94;110656;1213;99949;-65
2023/10/03 04:59:53;;;;;;;27.30;10.20;;;;;;;13.96;79.76;100595.05;110514;1214;139563;-65
2023/10/03 05:02:18;;;;;;;23.30;11.30;;;;;;;13.92;79.68;100589.18;110551;1214;99047;-65
2023/10/03 05:04:44;;;;;;;21.30;10.50;;;;;;;13.88;79.90;100587.96;110621;1210;139892;-65
2023/10/03 05:07:10;;;;;;;23.90;10.00;;;;;;;13.87;79.91;100588.79;110621;1213;99041;-64
2023/10/03 05:09:35;;;;;;;25.40;10.40;;;;;;;13.85;79.94;100586.52;110532;1214;99078;-65
2023/10/03 05:12:02;;;;;;;24.30;10.90;;;;;;;13.84;79.98;100585.67;110542;1209;139292;-65
2023/10/03 05:14:27;;;;;;;27.00;10.20;;;;;;;13.85;80.18;100577.91;110658;1209;112812;-64
2023/10/03 05:16:53;;;;;;;31.30;11.80;;;;;;;13.86;80.03;100572.45;110517;1209;139719;-64
2023/10/03 05:19:18;;;;;;;23.40;9.40;;;;;;;13.85;80.13;100568.73;110673;1214;100535;-64
2023/10/03 05:21:45;;;;;;;26.90;12.00;;;;;;;13.86;80.24;100565.45;110584;1211;98954;-64
2023/10/03 05:24:11;;;;;;;29.30;10.90;;;;;;;13.87;80.31;100559.45;110514;1211;140651;-66
2023/10/03 05:26:41;;;;;;;24.90;10.40;;;;;;;13.88;80.34;100552.20;110941;1214;99035;-65
2023/10/03 05:29:06;;;;;;;27.30;10.80;;;;;;;13.90;80.38;100549.60;110614;1214;139627;-65
2023/10/03 05:31:31;;;;;;;23.70;9.90;;;;;;;13.92;80.30;100546.61;110523;1214;99031;-65
2023/10/03 05:33:57;;;;;;;21.90;11.40;;;;;;;13.93;80.37;100544.39;110694;1214;98952;-65
2023/10/03 05:36:23;;;;;;;21.70;10.20;;;;;;;13.93;80.29;100540.41;110562;1214;140665;-65
2023/10/03 05:38:49;;;;;;;36.00;10.50;;;;;;;13.94;80.31;100534.97;110744;1209;99052;-65
2023/10/03 05:41:21;;;;;;;24.30;10.20;;;;;;;13.94;80.41;100532.29;110620;1213;139349;-65
2023/10/03 05:43:48;;;;;;;26.90;10.00;;;;;;;13.97;80.44;100530.00;110644;1214;100063;-65
2023/10/03 05:46:13;;;;;;;22.80;9.40;;;;;;;13.99;80.40;100526.29;110626;1209;98990;-65
2023/10/03 05:48:39;;;;;;;27.60;10.20;;;;;;;14.02;80.52;100520.56;110556;1208;138847;-65
2023/10/03 05:51:05;;;;;;;26.00;10.50;;;;;;;14.05;80.60;100521.09;110645;1214;99033;-65
2023/10/03 05:53:31;;;;;;;22.80;10.50;;;;;;;14.08;80.59;100517.27;110530;1210;139685;-65
2023/10/03 05:55:56;;;;;;;32.50;10.20;;;;;;;14.12;80.67;100514.38;110550;1209;99128;-65
2023/10/03 05:58:22;;;;;;;24.80;11.40;;;;;;;14.17;80.76;100515.67;110587;1214;139202;-65
2023/10/03 06:00:49;;;;;;;30.50;9.70;;;;;;;14.21;80.72;100512.16;110747;1211;99072;-65
2023/10/03 06:03:14;;;;;;;25.90;10.10;;;;;;;14.25;80.74;100511.20;110643;1214;98973;-65
2023/10/03 06:05:40;;;;;;;25.90;11.70;;;;;;;14.31;80.72;100511.77;110584;1211;139605;-65
2023/10/03 06:08:05;;;;;;;22.10;11.80;;;;;;;14.35;80.73;100511.70;110540;1223;99120;-65
2023/10/03 06:10:32;;;;;;;24.10;11.20;;;;;;;14.39;80.69;100513.75;110532;1214;139335;-65
2023/10/03 06:12:57;;;;;;;28.40;10.70;;;;;;;14.44;80.69;100507.21;110665;1208;99032;-65
2023/10/03 06:15:24;;;;;;;28.30;11.50;;;;;;;14.48;80.71;100506.76;110606;1214;99031;-65
2023/10/03 06:17:52;;;;;;;20.10;9.70;;;;;;;14.52;80.73;100507.59;110578;1210;139655;-65
2023/10/03 06:20:17;;;;;;;31.70;10.70;;;;;;;14.57;80.59;100507.66;110756;1213;98994;-65
2023/10/03 06:22:43;;;;;;;26.80;10.40;;;;;;;14.61;80.76;100507.06;110543;1214;139753;-65
2023/10/03 06:25:09;;;;;;;23.90;9.60;;;;;;;14.68;80.79;100507.54;110662;1210;99098;-65
2023/10/03 06:27:35;;;;;;;22.10;9.50;;;;;;;14.75;80.81;100511.05;110733;1209;99294;-65
2023/10/03 06:30:01;;;;;;;19.60;9.30;;;;;;;14.83;80.79;100511.42;110608;1214;139013;-65
2023/10/03 06:32:26;;;;;;;27.80;10.30;;;;;;;14.90;80.85;100511.50;110799;1214;98995;-65
2023/10/03 06:34:52;;;;;;;22.10;10.60;;;;;;;14.98;80.75;100509.20;110363;1214;140776;-65
2023/10/03 06:37:17;;;;;;;22.00;9.30;;;;;;;15.06;80.69;100501.54;110694;1211;99035;-65
2023/10/03 06:39:43;;;;;;;18.60;8.90;;;;;;;15.12;80.61;100504.71;110822;1213;99452;-65
2023/10/03 06:42:08;;;;;;;24.80;9.80;;;;;;;15.19;80.66;100503.52;110546;1210;138874;-65
2023/10/03 06:44:36;;;;;;;25.50;9.50;;;;;;;15.26;80.51;100503.63;110768;1209;99010;-65
2023/10/03 06:47:03;;;;;;;26.10;9.70;;;;;;;15.32;80.48;100500.92;110559;1212;140005;-65
2023/10/03 06:49:29;;;;;;;25.00;9.60;;;;;;;15.37;80.46;100490.33;110799;1209;97856;-65
2023/10/03 06:51:57;;;;;;;32.50;10.10;;;;;;;15.43;80.41;100492.27;110658;1214;99001;-65
2023/10/03 06:54:23;;;;;;;23.80;9.40;;;;;;;15.49;80.43;100491.81;110550;1213;139699;-65
2023/10/03 06:56:50;;;;;;;25.10;9.80;;;;;;;15.57;80.33;100493.67;110650;1209;99028;-65
2023/10/03 06:59:16;;;;;;;34.40;12.80;;;;;;;15.64;80.20;100491.19;110590;1214;139639;-65
2023/10/03 07:01:41;;;;;;;19.90;9.00;;;;;;;15.73;80.18;100494.39;110726;1214;108008;-65
2023/10/03 07:04:06;;;;;;;22.70;8.90;;;;;;;15.81;79.94;100498.85;110634;1214;100534;-65
2023/10/03 07:06:33;;;;;;;24.90;8.30;;;;;;;15.89;79.85;100492.92;110541;1214;139444;-65
2023/10/03 07:08:59;;;;;;;21.20;8.00;;;;;;;15.97;79.93;100495.14;112743;1209;99345;-66
2023/10/03 07:11:24;;;;;;;27.10;8.70;;;;;;;16.07;79.79;100491.71;112686;1208;140593;-63
2023/10/03 07:13:50;;;;;;;26.60;8.80;;;;;;;16.16;79.72;100490.50;112877;1209;96941;-65
2023/10/03 07:16:16;;;;;;;25.50;9.10;;;;;;;16.27;79.61;100491.73;112705;1209;139038;-62
2023/10/03 07:18:43;;;;;;;26.80;9.20;;;;;;;16.36;79.40;100491.13;111841;1209;99432;-65
2023/10/03 07:21:09;;;;;;;19.10;8.40;;;;;;;16.48;79.40;100488.27;110346;1210;99032;-65
2023/10/03 07:23:34;;;;;;;23.20;10.10;;;;;;;16.60;79.28;100479.15;110497;1213;139194;-65
2023/10/03 07:25:59;;;;;;;22.60;9.40;;;;;;;16.72;79.21;100477.77;110482;1209;98933;-65
2023/10/03 07:28:25;;;;;;;31.70;8.10;;;;;;;16.82;78.96;100476.65;110442;1210;139244;-65
2023/10/03 07:30:50;;;;;;;24.80;8.90;;;;;;;16.90;78.80;100469.23;110574;1208;99038;-65
2023/10/03 07:33:15;;;;;;;22.70;9.30;;;;;;;17.02;78.87;100461.35;110407;1214;97901;-66
2023/10/03 07:35:44;;;;;;;25.80;9.50;;;;;;;17.15;78.64;100462.03;110068;1214;138987;-65
2023/10/03 07:38:11;;;;;;;20.80;8.50;;;;;;;17.26;78.39;100454.50;110162;1209;107641;-65
2023/10/03 07:40:38;;;;;;;18.00;8.60;;;;;;;17.38;78.17;100445.83;110441;1214;140895;-65
2023/10/03 07:43:12;;;;;;;20.20;7.50;;;;;;;17.50;78.02;100435.16;110610;1210;99053;-65
2023/10/03 07:45:38;;;;;;;17.70;7.40;;;;;;;17.64;77.94;100431.61;110562;1213;104331;-65
2023/10/03 07:48:09;;;;;;;23.20;7.70;;;;;;;17.77;77.73;100429.52;110419;1214;140142;-65
2023/10/03 07:50:35;;;;;;;16.30;7.30;;;;;;;17.92;77.62;100424.94;110437;1209;99588;-65
2023/10/03 07:53:03;;;;;;;15.00;7.00;;;;;;;18.07;77.30;100418.73;110438;1214;139608;-65
2023/10/03 07:55:32;;;;;;;19.80;6.00;;;;;;;18.21;77.15;100411.61;110683;1214;99058;-65
2023/10/03 07:57:58;;;;;;;13.50;6.30;;;;;;;18.36;76.89;100405.92;110593;1213;104431;-65
2023/10/03 08:00:26;;;;;;;16.20;6.30;;;;;;;18.50;76.47;100401.00;110467;1214;139623;-65
2023/10/03 08:02:52;;;;;;;18.60;7.20;;;;;;;18.63;76.24;100403.17;110471;1214;99030;-65
2023/10/03 08:05:17;;;;;;;17.20;6.70;;;;;;;18.77;76.06;100403.38;110578;1214;139566;-65
2023/10/03 08:07:49;;;;;;;22.70;7.50;;;;;;;18.89;75.82;100394.55;110541;1210;98954;-65
2023/10/03 08:10:16;;;;;;;29.10;15.80;;;;;;;19.00;75.61;100393.10;110490;1209;139601;-65
2023/10/03 08:12:42;;;;;;;14.10;7.00;;;;;;;19.09;75.34;100391.60;110585;1211;98940;-65
2023/10/03 08:15:16;;;;;;;42.80;8.20;;;;;;;19.17;74.91;100388.81;110492;1214;99043;-65
2023/10/03 08:17:49;;;;;;;38.40;8.30;;;;;;;19.22;74.89;100386.92;110480;1212;138835;-64
2023/10/03 08:20:17;;;;;;;28.00;6.90;;;;;;;19.28;74.50;100390.98;110448;1214;104724;-65
2023/10/03 08:22:42;;;;;;;28.00;7.10;;;;;;;19.33;74.20;100386.34;110410;1211;139470;-65
2023/10/03 08:25:09;;;;;;;21.80;7.10;;;;;;;19.38;74.03;100382.64;110548;1210;98977;-65
2023/10/03 08:27:35;;;;;;;15.10;6.70;;;;;;;19.44;73.85;100381.44;110676;1211;99027;-65
2023/10/03 08:30:02;;;;;;;13.20;6.20;;;;;;;19.53;73.52;100381.60;110504;1211;139575;-65
2023/10/03 08:32:28;;;;;;;14.00;6.20;;;;;;;19.64;73.35;100374.48;110575;1209;98951;-65
2023/10/03 08:34:53;;;;;;;16.50;7.00;;;;;;;19.78;73.18;100369.02;110349;1209;140089;-65
2023/10/03 08:37:21;;;;;;;17.10;7.40;;;;;;;19.87;72.84;100365.27;110618;1208;99004;-65
2023/10/03 08:39:50;;;;;;;15.50;6.00;;;;;;;19.96;72.61;100359.20;110484;1209;104285;-65
2023/10/03 08:42:34;;;;;;;21.20;7.30;;;;;;;20.04;72.55;100356.19;110612;1210;139945;-65
2023/10/03 08:45:16;;;;;;;15.00;5.80;;;;;;;20.13;72.36;100353.27;110635;1212;99271;-65
2023/10/03 08:47:47;;;;;;;18.10;7.50;;;;;;;20.21;72.04;100350.84;110425;1211;140725;-65
2023/10/03 08:50:29;;;;;;;13.40;6.30;;;;;;;20.27;71.73;100351.10;110484;1214;99159;-65
2023/10/03 08:52:56;;;;;;;27.30;7.40;;;;;;;20.35;71.40;100350.37;110406;1213;140042;-65
2023/10/03 08:55:26;;;;;;;17.10;6.00;;;;;;;20.44;71.18;100350.17;110520;1213;98970;-64
2023/10/03 08:57:52;;;;;;;15.70;6.00;;;;;;;20.50;70.99;100341.04;110517;1209;99027;-64
2023/10/03 09:00:25;;;;;;;10.80;5.40;;;;;;;20.58;70.75;100336.12;110488;1211;139601;-68
2023/10/03 09:02:59;;;;;;;16.70;7.00;;;;;;;20.66;70.39;100333.02;110523;1211;99613;-66
2023/10/03 09:05:25;;;;;;;12.60;5.60;;;;;;;20.76;70.08;100325.27;110401;1209;139587;-65
2023/10/03 09:07:58;;;;;;;11.90;5.80;;;;;;;20.85;69.64;100322.27;110559;1209;98995;-65
2023/10/03 09:10:26;;;;;;;16.70;5.60;;;;;;;20.93;69.54;100316.96;110507;1210;140533;-65
2023/10/03 09:12:51;;;;;;;17.40;6.80;;;;;;;21.02;69.28;100312.30;110544;1216;99051;-64
2023/10/03 09:15:19;;;;;;;12.70;6.60;;;;;;;21.10;69.00;100310.45;110616;1214;99028;-64
2023/10/03 09:17:49;;;;;;;18.80;6.10;;;;;;;21.21;68.81;100307.43;110525;1212;138779;-65
2023/10/03 09:20:22;;;;;;;10.70;5.00;;;;;;;21.32;68.53;100305.88;110606;1214;98968;-65
2023/10/03 09:22:52;;;;;;;10.00;5.40;;;;;;;21.45;68.38;100305.23;110504;1214;139196;-65
2023/10/03 09:25:21;;;;;;;18.30;6.10;;;;;;;21.59;68.04;100298.98;110645;1214;101359;-65
2023/10/03 09:27:47;;;;;;;13.30;6.00;;;;;;;21.72;67.41;100294.46;110661;1214;99019;-65
2023/10/03 09:30:22;;;;;;;15.60;5.60;;;;;;;21.87;66.90;100293.35;110345;1210;138378;-65
2023/10/03 09:32:50;;;;;;;15.30;6.50;;;;;;;22.07;66.53;100289.61;110810;1214;99060;-65
2023/10/03 09:35:16;;;;;;;15.60;5.60;;;;;;;22.24;65.54;100285.23;110534;1211;138503;-65
2023/10/03 09:37:50;;;;;;;18.60;5.60;;;;;;;22.41;65.81;100284.11;110503;1216;99097;-64
2023/10/03 09:40:16;;;;;;;13.60;6.00;;;;;;;22.62;65.28;100279.62;110530;1209;141888;-66
2023/10/03 09:42:48;;;;;;;14.30;5.40;;;;;;;22.81;64.54;100273.92;110501;1210;98998;-64
2023/10/03 09:45:17;;;;;;;26.10;6.60;;;;;;;23.01;64.12;100270.79;110574;1214;99065;-65
2023/10/03 09:47:48;;;;;;;28.40;6.20;;;;;;;23.21;63.52;100275.30;110611;1209;138344;-66
2023/10/03 09:50:13;;;;;;;23.00;6.30;;;;;;;23.39;62.46;100274.14;112663;1210;96994;-64
2023/10/03 09:52:44;;;;;;;17.10;5.70;;;;;;;23.56;62.19;100275.15;112689;1209;138942;-64
2023/10/03 09:55:22;;;;;;;14.50;5.40;;;;;;;23.73;62.08;100268.68;111680;1214;104981;-66
2023/10/03 09:57:59;;;;;;;19.70;5.10;;;;;;;23.91;61.48;100266.79;110468;1210;98948;-65
2023/10/03 10:01:11;;;;;;;21.60;5.70;;;;;;;24.09;60.91;100263.79;110301;1212;139260;-66
2023/10/03 10:03:19;;;;;;;21.90;5.80;;;;;;;24.20;58.18;100258.77;110339;1210;98972;-66
2023/10/03 10:05:59;;;;;;;;;;;;;;;24.27;58.91;100252.37;110335;1212;142077;-65
2023/10/03 10:08:48;;;;;;;18.50;5.20;;;;;;;24.35;58.98;100248.78;110534;1213;105112;-65
2023/10/03 10:11:14;;;;;;;44.60;6.90;;;;;;;24.45;58.31;100247.83;110341;1214;140651;-64
2023/10/03 10:14:16;;;;;;;13.00;5.70;;;;;;;24.51;57.84;100237.92;110383;1211;99026;-65
2023/10/03 10:17:10;;;;;;;22.00;6.40;;;;;;;24.55;57.47;100227.18;110307;1212;138870;-65
2023/10/03 10:20:12;;;;;;;21.50;6.20;;;;;;;24.53;56.39;100211.70;110406;1217;99011;-65
2023/10/03 10:23:04;;;;;;;25.30;6.10;;;;;;;24.53;56.31;100217.82;111262;1209;138715;-65
2023/10/03 10:25:43;;;;;;;18.00;5.40;;;;;;;24.50;55.35;100209.91;110478;1214;99040;-67
2023/10/03 10:28:18;;;;;;;14.30;6.20;;;;;;;24.46;55.59;100204.27;112676;1211;99750;-66
2023/10/03 10:31:15;;;;;;;20.00;6.20;;;;;;;24.46;55.15;100205.03;110828;1214;99535;-66
2023/10/03 10:33:42;;;;;;;18.20;5.70;;;;;;;24.48;55.08;100200.23;110467;1215;99041;-64
2023/10/03 10:36:12;;;;;;;17.40;6.00;;;;;;;24.51;54.79;100199.90;110355;1213;140528;-65
2023/10/03 10:38:40;;;;;;;19.90;6.10;;;;;;;24.60;54.71;100194.17;110249;1210;98964;-64
2023/10/03 10:41:11;;;;;;;15.60;6.30;;;;;;;24.69;54.53;100194.49;110477;1210;138642;-65
2023/10/03 10:44:14;;;;;;;11.10;5.70;;;;;;;24.75;54.21;100187.77;110382;1214;100063;-65
2023/10/03 10:46:45;;;;;;;18.00;5.30;;;;;;;24.82;54.46;100170.16;110307;1214;138700;-64
2023/10/03 10:49:40;;;;;;;15.60;5.90;;;;;;;24.89;54.28;100165.91;110374;1215;104451;-63
2023/10/03 10:52:13;;;;;;;14.10;5.90;;;;;;;24.97;54.27;100157.21;110451;1209;98912;-66
2023/10/03 10:54:41;;;;;;;16.20;5.90;;;;;;;25.05;53.92;100157.96;110482;1208;137977;-64
2023/10/03 10:57:11;;;;;;;21.50;5.70;;;;;;;25.10;53.40;100154.95;110586;1214;98920;-65
2023/10/03 10:59:40;;;;;;;21.10;6.60;;;;;;;25.18;53.26;100149.73;110415;1215;139451;-64
2023/10/03 11:02:14;;;;;;;12.40;6.00;;;;;;;25.29;53.35;100141.19;110457;1214;104879;-66
2023/10/03 11:04:40;;;;;;;25.20;6.40;;;;;;;25.48;52.90;100132.96;110348;1212;139037;-64
2023/10/03 11:07:09;;;;;;;16.30;6.50;;;;;;;25.57;52.75;100130.27;110280;1211;99140;-66
2023/10/03 11:09:37;;;;;;;16.90;6.00;;;;;;;25.67;52.41;100129.85;110541;1214;99053;-65
2023/10/03 11:12:07;;;;;;;15.10;6.30;;;;;;;25.76;52.01;100127.53;110339;1210;138121;-65
2023/10/03 11:14:36;;;;;;;15.70;6.40;;;;;;;25.88;52.15;100126.87;110535;1214;113712;-63
2023/10/03 11:17:02;;;;;;;14.00;6.10;;;;;;;26.01;51.86;100128.34;110275;1212;138778;-66